Time;durP1;ratioP1;P1;durP2;ratioP2;P2;SDS_P1;SDS_P2;PMS_P1;PMS_P2;Temp;Humidity;BMP_temperature;BMP_pressure;BME280_temperature;BME280_humidity;BME280_pressure;Samples;Min_cycle;Max_cycle;Signal;HPM_P1;HPM_P2
2022/03/16 00:00:35;;;;;;;33.73;18.23;;;;;;;6.19;100.00;101412.94;5063408;28;20219;-72
2022/03/16 00:03:01;;;;;;;35.13;18.83;;;;;;;6.20;100.00;101416.41;5064866;28;20195;-74
2022/03/16 00:05:28;;;;;;;43.23;18.90;;;;;;;6.19;100.00;101419.81;5065910;28;20206;-73
2022/03/16 00:07:54;;;;;;;37.23;18.57;;;;;;;6.19;100.00;101419.81;5066393;28;20218;-74
2022/03/16 00:10:20;;;;;;;38.30;18.57;;;;;;;6.18;100.00;101418.13;5070009;28;20205;-74
2022/03/16 00:12:47;;;;;;;35.27;18.20;;;;;;;6.17;100.00;101422.41;5050008;28;20199;-74
2022/03/16 00:15:13;;;;;;;37.10;18.27;;;;;;;6.16;100.00;101428.47;5065464;28;20207;-74
2022/03/16 00:17:41;;;;;;;41.67;19.07;;;;;;;6.16;100.00;101445.72;5069042;28;20218;-73
2022/03/16 00:20:08;;;;;;;38.27;19.10;;;;;;;6.09;100.00;101446.56;5064928;28;20210;-75
2022/03/16 00:22:35;;;;;;;39.43;18.90;;;;;;;6.00;100.00;101449.97;5043752;28;20207;-75
2022/03/16 00:25:01;;;;;;;37.23;19.50;;;;;;;5.96;100.00;101459.44;5068777;28;20661;-75
2022/03/16 00:27:28;;;;;;;33.03;18.63;;;;;;;5.94;100.00;101457.63;5069414;28;20201;-75
2022/03/16 00:29:54;;;;;;;36.63;18.70;;;;;;;5.90;100.00;101454.16;5063247;28;20290;-72
2022/03/16 00:32:21;;;;;;;39.63;18.53;;;;;;;5.87;100.00;101449.84;5063112;28;20198;-74
2022/03/16 00:34:48;;;;;;;34.27;18.00;;;;;;;5.83;100.00;101461.03;5065152;28;20206;-75
2022/03/16 00:37:15;;;;;;;32.03;17.87;;;;;;;5.78;100.00;101460.13;5046492;28;20225;-74
2022/03/16 00:39:41;;;;;;;38.20;18.53;;;;;;;5.75;100.00;101457.53;5048084;28;20199;-74
2022/03/16 00:42:08;;;;;;;33.43;17.17;;;;;;;5.73;100.00;101460.94;5047811;28;20199;-73
2022/03/16 00:44:35;;;;;;;34.33;18.03;;;;;;;5.68;100.00;101461.78;5046799;28;20811;-75
2022/03/16 00:47:02;;;;;;;36.03;17.73;;;;;;;5.65;100.00;101456.59;5064994;28;20187;-74
2022/03/16 00:49:29;;;;;;;29.83;17.07;;;;;;;5.60;100.00;101460.00;5049458;28;20234;-75
2022/03/16 00:51:56;;;;;;;34.30;17.43;;;;;;;5.58;100.00;101459.13;5064542;28;20203;-74
2022/03/16 00:54:23;;;;;;;31.77;16.77;;;;;;;5.51;100.00;101458.22;5047882;28;20201;-74
2022/03/16 00:56:49;;;;;;;33.23;17.00;;;;;;;5.47;100.00;101462.50;5047817;28;20478;-73
2022/03/16 00:59:16;;;;;;;33.73;17.03;;;;;;;5.41;100.00;101470.19;5052005;28;20864;-74
2022/03/16 01:01:42;;;;;;;35.27;17.37;;;;;;;5.37;100.00;101468.44;5046824;28;20214;-73
2022/03/16 01:04:09;;;;;;;31.50;17.37;;;;;;;5.32;100.00;101459.75;5043179;28;20217;-74
2022/03/16 01:06:35;;;;;;;30.73;16.70;;;;;;;5.25;100.00;101466.59;5058653;28;20198;-75
2022/03/16 01:09:03;;;;;;;36.60;17.63;;;;;;;5.21;100.00;101467.44;5067239;28;20245;-74
2022/03/16 01:11:30;;;;;;;35.97;17.00;;;;;;;5.16;100.00;101473.41;5059743;28;20207;-72
2022/03/16 01:13:56;;;;;;;31.57;17.93;;;;;;;5.08;100.00;101466.44;5046683;28;20211;-74
2022/03/16 01:16:22;;;;;;;31.03;16.03;;;;;;;5.03;100.00;101473.28;5045841;28;20623;-74
2022/03/16 01:18:49;;;;;;;31.00;16.20;;;;;;;4.97;100.00;101469.78;5044076;28;20233;-75
2022/03/16 01:21:16;;;;;;;33.43;16.83;;;;;;;4.93;100.00;101471.47;5042792;28;20215;-72
2022/03/16 01:23:43;;;;;;;27.80;15.87;;;;;;;4.89;100.00;101478.31;5045330;28;20464;-72
2022/03/16 01:26:10;;;;;;;33.17;17.47;;;;;;;4.88;100.00;101478.28;5045528;28;20206;-74
2022/03/16 01:28:37;;;;;;;34.67;16.37;;;;;;;4.82;100.00;101473.94;5045786;28;20233;-74
2022/03/16 01:31:03;;;;;;;29.37;15.70;;;;;;;4.82;100.00;101480.78;5048296;28;20284;-75
2022/03/16 01:33:31;;;;;;;27.40;15.33;;;;;;;4.79;100.00;101473.88;5061518;28;20202;-72
2022/03/16 01:35:58;;;;;;;34.07;16.70;;;;;;;4.78;100.00;101468.69;5046223;28;20269;-74
2022/03/16 01:38:25;;;;;;;31.37;16.70;;;;;;;4.74;100.00;101472.97;5044610;28;20321;-74
2022/03/16 01:40:52;;;;;;;30.17;16.10;;;;;;;4.70;100.00;101466.91;5063147;28;20219;-73
2022/03/16 01:43:20;;;;;;;28.83;15.70;;;;;;;4.66;100.00;101472.88;5064742;28;20198;-75
2022/03/16 01:45:48;;;;;;;32.87;16.77;;;;;;;4.64;100.00;101471.13;5076128;28;20202;-75
2022/03/16 01:48:16;;;;;;;31.10;16.60;;;;;;;4.63;100.00;101472.84;5064216;28;20206;-72
2022/03/16 01:50:44;;;;;;;36.30;15.90;;;;;;;4.58;100.00;101466.75;5060819;28;20191;-75
2022/03/16 01:53:11;;;;;;;30.27;16.50;;;;;;;4.56;100.00;101473.63;5043691;28;20676;-72
2022/03/16 01:55:39;;;;;;;31.60;15.67;;;;;;;4.52;100.00;101477.88;5047555;28;20198;-74
2022/03/16 01:58:05;;;;;;;27.20;14.83;;;;;;;4.49;100.00;101472.66;5046108;28;20222;-75
2022/03/16 02:00:33;;;;;;;30.00;16.30;;;;;;;4.46;100.00;101475.22;5047125;28;20322;-72
2022/03/16 02:03:00;;;;;;;26.23;14.77;;;;;;;4.45;100.00;101481.25;5052128;28;20255;-75
2022/03/16 02:05:28;;;;;;;29.83;15.23;;;;;;;4.43;100.00;101487.22;5049159;28;20610;-75
2022/03/16 02:07:55;;;;;;;31.53;16.93;;;;;;;4.41;100.00;101487.19;5067920;28;20218;-74
2022/03/16 02:10:22;;;;;;;30.43;15.47;;;;;;;4.41;100.00;101494.09;5063481;28;20209;-75
2022/03/16 02:12:52;;;;;;;30.90;14.67;;;;;;;4.40;100.00;101494.91;5063515;28;20202;-74
2022/03/16 02:15:20;;;;;;;31.70;16.10;;;;;;;4.38;100.00;101494.91;5064712;28;20197;-73
2022/03/16 02:17:50;;;;;;;31.47;15.93;;;;;;;4.40;100.00;101498.38;5063955;28;20223;-74
2022/03/16 02:20:17;;;;;;;31.40;15.70;;;;;;;4.41;100.00;101507.84;5067452;28;20206;-73
2022/03/16 02:22:56;;;;;;;29.30;15.77;;;;;;;4.41;100.00;101514.75;5051881;28;20198;-73
2022/03/16 02:25:22;;;;;;;29.03;14.93;;;;;;;4.38;100.00;101517.28;5052168;28;20576;-75
2022/03/16 02:27:49;;;;;;;33.03;14.77;;;;;;;4.35;100.00;101524.13;5070076;28;20609;-74
2022/03/16 02:30:16;;;;;;;32.40;15.60;;;;;;;4.36;100.00;101530.16;5071970;28;20213;-72
2022/03/16 02:32:43;;;;;;;29.80;15.57;;;;;;;4.36;100.00;101531.03;5069661;28;20202;-72
2022/03/16 02:35:09;;;;;;;29.83;16.37;;;;;;;4.33;100.00;101532.72;5069436;28;20724;-75
2022/03/16 02:37:37;;;;;;;28.47;14.50;;;;;;;4.32;100.00;101537.00;5065788;28;20226;-73
2022/03/16 02:40:06;;;;;;;30.97;14.73;;;;;;;4.34;100.00;101545.66;5054027;28;20907;-75
2022/03/16 02:42:33;;;;;;;26.90;14.30;;;;;;;4.30;100.00;101543.84;5071844;28;20640;-74
2022/03/16 02:44:59;;;;;;;24.87;13.83;;;;;;;4.28;100.00;101545.56;5070044;28;20588;-74
2022/03/16 02:47:27;;;;;;;32.67;15.20;;;;;;;4.25;100.00;101544.63;5074371;28;20198;-74
2022/03/16 02:49:54;;;;;;;26.53;14.20;;;;;;;4.25;100.00;101552.38;5068810;28;20218;-74
2022/03/16 02:52:21;;;;;;;22.87;14.00;;;;;;;4.24;100.00;101548.94;5049984;28;20673;-74
2022/03/16 02:54:47;;;;;;;22.67;13.17;;;;;;;4.22;100.00;101558.38;5066855;28;20209;-73
2022/03/16 02:57:16;;;;;;;33.23;14.63;;;;;;;4.21;100.00;101563.53;5072753;28;20538;-74
2022/03/16 02:59:42;;;;;;;27.67;14.37;;;;;;;4.20;100.00;101574.69;5068028;28;20203;-74
2022/03/16 03:02:09;;;;;;;26.97;13.67;;;;;;;4.16;100.00;101574.63;5069434;28;20835;-74
2022/03/16 03:04:35;;;;;;;25.27;13.07;;;;;;;4.13;100.00;101573.72;5052927;28;20206;-74
2022/03/16 03:07:02;;;;;;;28.17;14.67;;;;;;;4.11;100.00;101585.72;5052721;28;20195;-74
2022/03/16 03:09:28;;;;;;;24.60;14.17;;;;;;;4.12;100.00;101595.22;5070119;28;20210;-74
2022/03/16 03:11:56;;;;;;;33.63;13.60;;;;;;;4.12;100.00;101597.81;5050821;28;20211;-75
2022/03/16 03:14:24;;;;;;;33.33;14.20;;;;;;;4.11;100.00;101603.78;5056492;28;20261;-75
2022/03/16 03:16:51;;;;;;;26.23;13.27;;;;;;;4.06;100.00;101603.72;5054396;28;20218;-74
2022/03/16 03:19:17;;;;;;;27.87;14.20;;;;;;;4.05;100.00;101606.28;5069181;28;20234;-75
2022/03/16 03:21:43;;;;;;;26.87;14.27;;;;;;;4.05;100.00;101616.63;5051765;28;20206;-74
2022/03/16 03:24:10;;;;;;;24.30;14.03;;;;;;;4.01;100.00;101607.97;5065909;28;20576;-74
2022/03/16 03:26:36;;;;;;;29.23;13.67;;;;;;;3.97;100.00;101609.63;5053947;28;20206;-74
2022/03/16 03:29:03;;;;;;;23.53;13.40;;;;;;;3.92;100.00;101612.94;5054130;28;20734;-73
2022/03/16 03:31:31;;;;;;;25.47;13.83;;;;;;;3.86;100.00;101618.88;5060271;28;20911;-75
2022/03/16 03:33:57;;;;;;;25.53;13.70;;;;;;;3.79;100.00;101623.03;5065215;28;20293;-74
2022/03/16 03:36:24;;;;;;;24.90;13.70;;;;;;;3.72;100.00;101630.66;5065946;28;20221;-74
2022/03/16 03:38:50;;;;;;;26.07;13.17;;;;;;;3.66;100.00;101638.28;5063443;28;20223;-75
2022/03/16 03:41:16;;;;;;;24.73;13.23;;;;;;;3.59;100.00;101637.31;5048731;28;20202;-75
2022/03/16 03:43:43;;;;;;;26.23;13.27;;;;;;;3.53;100.00;101632.88;5066008;28;20210;-75
2022/03/16 03:46:10;;;;;;;22.30;12.70;;;;;;;3.46;100.00;101641.34;5050583;28;20203;-72
2022/03/16 03:48:38;;;;;;;25.33;12.73;;;;;;;3.39;100.00;101644.66;5068620;28;20226;-75
2022/03/16 03:51:04;;;;;;;26.83;13.30;;;;;;;3.33;100.00;101637.66;5050070;28;20608;-74
2022/03/16 03:53:30;;;;;;;26.10;15.10;;;;;;;3.27;100.00;101645.25;5067110;28;20203;-72
2022/03/16 03:55:57;;;;;;;26.00;13.07;;;;;;;3.24;100.00;101642.66;5063027;28;20668;-74
2022/03/16 03:58:23;;;;;;;26.13;14.33;;;;;;;3.20;100.00;101646.88;5066635;28;20222;-74
2022/03/16 04:00:50;;;;;;;24.27;13.73;;;;;;;3.16;100.00;101647.63;5063699;28;20883;-74
2022/03/16 04:03:16;;;;;;;26.17;13.97;;;;;;;3.09;100.00;101650.06;5065930;28;20247;-74
2022/03/16 04:05:44;;;;;;;26.33;13.63;;;;;;;2.99;100.00;101654.13;5066742;28;20209;-72
2022/03/16 04:08:11;;;;;;;24.87;14.10;;;;;;;2.90;100.00;101659.09;5046616;28;20218;-74
2022/03/16 04:10:39;;;;;;;23.10;14.00;;;;;;;2.86;100.00;101659.88;5063703;28;20199;-74
2022/03/16 04:13:05;;;;;;;23.40;13.53;;;;;;;2.81;100.00;101668.38;5070457;28;20646;-74
2022/03/16 04:15:31;;;;;;;26.90;13.77;;;;;;;2.78;100.00;101672.56;5065613;28;20221;-75
2022/03/16 04:17:59;;;;;;;24.30;14.07;;;;;;;2.71;100.00;101678.41;5048127;28;20230;-75
2022/03/16 04:20:26;;;;;;;27.10;13.33;;;;;;;2.65;100.00;101681.72;5066758;28;20214;-74
2022/03/16 04:22:53;;;;;;;24.33;13.97;;;;;;;2.59;100.00;101686.75;5066217;28;20704;-75
2022/03/16 04:25:20;;;;;;;22.07;13.07;;;;;;;2.52;100.00;101692.56;5064754;28;20712;-74
2022/03/16 04:27:46;;;;;;;23.03;13.50;;;;;;;2.49;100.00;101692.50;5053921;28;20241;-74
2022/03/16 04:30:13;;;;;;;26.13;14.43;;;;;;;2.47;100.00;101693.31;5065367;28;20214;-75
2022/03/16 04:32:39;;;;;;;25.03;14.50;;;;;;;2.44;100.00;101700.09;5066574;28;20225;-73
2022/03/16 04:35:07;;;;;;;29.60;14.97;;;;;;;2.46;100.00;101701.00;5061951;28;20186;-74
2022/03/16 04:37:33;;;;;;;31.50;15.10;;;;;;;2.48;100.00;101709.66;5065247;28;20230;-72
2022/03/16 04:40:02;;;;;;;38.60;16.90;;;;;;;2.47;100.00;101713.06;5062521;28;20274;-74
2022/03/16 04:42:28;;;;;;;33.97;15.63;;;;;;;2.46;100.00;101719.03;5070120;28;20573;-74
2022/03/16 04:44:54;;;;;;;33.07;15.43;;;;;;;2.49;100.00;101720.81;5061578;28;20573;-73
2022/03/16 04:47:21;;;;;;;31.30;15.93;;;;;;;2.46;100.00;101719.03;5065331;28;20250;-75
2022/03/16 04:49:47;;;;;;;29.67;16.43;;;;;;;2.46;100.00;101724.16;5066200;28;20194;-75
2022/03/16 04:52:13;;;;;;;33.47;16.83;;;;;;;2.39;100.00;101733.47;5066394;28;20201;-74
2022/03/16 04:54:40;;;;;;;32.07;16.23;;;;;;;2.36;100.00;101735.09;5069186;28;20203;-74
2022/03/16 04:57:08;;;;;;;33.37;17.90;;;;;;;2.37;100.00;101736.81;5070626;28;20227;-75
2022/03/16 04:59:34;;;;;;;32.87;17.07;;;;;;;2.42;100.00;101737.81;5063011;28;20221;-75
2022/03/16 05:02:01;;;;;;;32.47;17.40;;;;;;;2.43;100.00;101735.28;5065189;28;20675;-75
2022/03/16 05:04:27;;;;;;;36.17;18.53;;;;;;;2.46;100.00;101739.63;5066655;28;20206;-75
2022/03/16 05:06:53;;;;;;;38.53;18.70;;;;;;;2.44;100.00;101743.84;5067099;28;20934;-74
2022/03/16 05:09:20;;;;;;;38.20;18.07;;;;;;;2.37;100.00;101741.97;5047236;28;20237;-73
2022/03/16 05:11:46;;;;;;;35.50;16.53;;;;;;;2.39;100.00;101748.91;5066526;28;20201;-75
2022/03/16 05:14:14;;;;;;;37.30;18.50;;;;;;;2.44;100.00;101756.72;5064805;28;20222;-73
2022/03/16 05:16:40;;;;;;;40.90;19.03;;;;;;;2.41;100.00;101762.69;5067095;28;20202;-75
2022/03/16 05:19:07;;;;;;;37.57;18.50;;;;;;;2.38;100.00;101766.88;5063845;28;20217;-75
2022/03/16 05:21:33;;;;;;;39.00;18.73;;;;;;;2.35;100.00;101771.94;5063697;28;20202;-75
2022/03/16 05:23:59;;;;;;;41.07;20.03;;;;;;;2.35;100.00;101765.09;5065399;28;20216;-75
2022/03/16 05:26:26;;;;;;;38.47;19.03;;;;;;;2.37;100.00;101771.16;5064268;28;20535;-76
2022/03/16 05:28:53;;;;;;;42.20;19.93;;;;;;;2.39;100.00;101778.91;5059293;28;20930;-75
2022/03/16 05:31:21;;;;;;;38.00;19.53;;;;;;;2.38;100.00;101772.03;5065363;28;20596;-75
2022/03/16 05:33:48;;;;;;;39.87;19.00;;;;;;;2.39;100.00;101773.75;5059227;28;20202;-75
2022/03/16 05:36:14;;;;;;;41.27;19.87;;;;;;;2.38;100.00;101778.03;5044306;28;20222;-76
2022/03/16 05:38:41;;;;;;;44.13;20.57;;;;;;;2.36;100.00;101778.84;5063564;28;20566;-75
2022/03/16 05:41:07;;;;;;;42.67;20.17;;;;;;;2.34;100.00;101793.34;5064753;28;20206;-75
2022/03/16 05:43:34;;;;;;;41.33;20.07;;;;;;;2.34;100.00;101801.09;5058227;28;20226;-74
2022/03/16 05:46:01;;;;;;;46.00;19.80;;;;;;;2.34;100.00;101811.38;5064343;28;20271;-75
2022/03/16 05:48:29;;;;;;;40.60;19.63;;;;;;;2.28;100.00;101812.09;5060677;28;20678;-74
2022/03/16 05:50:55;;;;;;;43.03;19.20;;;;;;;2.27;100.00;101821.53;5061985;28;20205;-75
2022/03/16 05:53:22;;;;;;;42.90;19.60;;;;;;;2.25;100.00;101818.03;5062241;28;20199;-75
2022/03/16 05:55:48;;;;;;;45.13;20.87;;;;;;;2.22;100.00;101827.38;5061864;28;20214;-75
2022/03/16 05:58:15;;;;;;;44.87;19.07;;;;;;;2.17;100.00;101824.66;5058538;28;20230;-74
2022/03/16 06:00:42;;;;;;;41.20;18.97;;;;;;;2.15;100.00;101835.75;5059596;28;20553;-74
2022/03/16 06:03:11;;;;;;;39.37;19.07;;;;;;;2.15;100.00;101848.63;5058199;28;20795;-74
2022/03/16 06:05:39;;;;;;;46.50;20.17;;;;;;;2.15;100.00;101854.63;5047656;28;20208;-75
2022/03/16 06:08:05;;;;;;;42.47;19.53;;;;;;;2.15;100.00;101852.06;5061534;28;20244;-74
2022/03/16 06:10:32;;;;;;;40.43;19.63;;;;;;;2.16;100.00;101847.78;5061970;28;20201;-75
2022/03/16 06:13:00;;;;;;;46.20;19.53;;;;;;;2.19;100.00;101856.47;5065276;28;20560;-73
2022/03/16 06:15:29;;;;;;;41.20;19.73;;;;;;;2.20;100.00;101853.06;5064309;28;20300;-73
2022/03/16 06:17:56;;;;;;;41.37;19.77;;;;;;;2.25;100.00;101853.19;5067934;28;20599;-75
2022/03/16 06:20:23;;;;;;;41.00;20.20;;;;;;;2.24;100.00;101860.03;5066633;28;20228;-74
2022/03/16 06:22:51;;;;;;;46.90;21.77;;;;;;;2.26;100.00;101855.78;5070646;28;20205;-75
2022/03/16 06:25:17;;;;;;;47.83;20.33;;;;;;;2.31;100.00;101855.06;5064584;28;20201;-76
2022/03/16 06:27:44;;;;;;;52.37;23.03;;;;;;;2.33;100.00;101856.84;5063384;28;20235;-75
2022/03/16 06:30:11;;;;;;;50.97;22.27;;;;;;;2.37;100.00;101862.94;5063866;28;20942;-76
2022/03/16 06:32:38;;;;;;;52.90;22.37;;;;;;;2.42;100.00;101871.66;5064043;28;20672;-76
2022/03/16 06:35:05;;;;;;;53.50;22.97;;;;;;;2.50;100.00;101871.88;5057589;28;20276;-76
2022/03/16 06:37:32;;;;;;;56.73;24.13;;;;;;;2.57;100.00;101873.78;5059159;28;20252;-73
2022/03/16 06:40:00;;;;;;;58.07;24.17;;;;;;;2.60;100.00;101871.28;5044962;28;20202;-74
2022/03/16 06:42:26;;;;;;;59.87;22.90;;;;;;;2.67;100.00;101874.91;5063627;28;20213;-75
2022/03/16 06:44:52;;;;;;;58.57;23.97;;;;;;;2.74;100.00;101871.66;5058620;28;20194;-75
2022/03/16 06:47:19;;;;;;;55.23;23.90;;;;;;;2.81;100.00;101870.97;5066732;28;20210;-76
2022/03/16 06:49:45;;;;;;;67.50;25.23;;;;;;;2.93;100.00;101873.00;5060256;28;20733;-75
2022/03/16 06:52:12;;;;;;;68.90;25.77;;;;;;;3.02;100.00;101871.50;5065744;28;20268;-74
2022/03/16 06:54:39;;;;;;;69.17;25.70;;;;;;;3.12;100.00;101882.94;5062882;28;20293;-75
2022/03/16 06:57:07;;;;;;;70.30;27.13;;;;;;;3.21;100.00;101883.16;5061074;28;20199;-75
2022/03/16 06:59:33;;;;;;;68.47;27.20;;;;;;;3.32;100.00;101879.97;5061277;28;20440;-76
2022/03/16 07:02:00;;;;;;;80.27;29.97;;;;;;;3.44;100.00;101884.53;5064344;28;20681;-76
2022/03/16 07:04:27;;;;;;;79.53;27.50;;;;;;;3.54;100.00;101887.38;5066464;28;20206;-75
2022/03/16 07:06:53;;;;;;;92.30;30.00;;;;;;;3.63;100.00;101896.16;5074620;28;20214;-74
2022/03/16 07:09:19;;;;;;;86.10;30.07;;;;;;;3.70;100.00;101896.31;5064708;28;20218;-76
2022/03/16 07:11:46;;;;;;;83.30;30.70;;;;;;;3.81;100.00;101885.38;5048815;28;20209;-75
2022/03/16 07:14:32;;;;;;;83.97;29.97;;;;;;;3.89;100.00;101892.44;5068978;28;20203;-75
2022/03/16 07:17:02;;;;;;;94.70;31.33;;;;;;;3.99;100.00;101883.16;5064916;28;20279;-75
2022/03/16 07:19:29;;;;;;;107.07;31.90;;;;;;;4.08;100.00;101882.50;5066040;28;20231;-74
2022/03/16 07:21:58;;;;;;;88.77;32.40;;;;;;;4.16;100.00;101886.97;5072217;28;20230;-75
2022/03/16 07:24:25;;;;;;;103.10;33.43;;;;;;;4.24;100.00;101883.66;5069372;28;20191;-75
2022/03/16 07:26:52;;;;;;;95.07;33.60;;;;;;;4.37;100.00;101890.84;5065815;28;20234;-74
2022/03/16 07:29:20;;;;;;;116.40;39.47;;;;;;;4.48;100.00;101891.91;5065547;28;20237;-74
2022/03/16 07:31:46;;;;;;;116.23;41.50;;;;;;;4.53;100.00;101892.88;5067180;28;20723;-75
2022/03/16 07:34:13;;;;;;;125.67;42.17;;;;;;;4.61;100.00;101892.13;5063785;28;20666;-76
2022/03/16 07:36:39;;;;;;;139.97;57.90;;;;;;;4.67;100.00;101893.13;5066397;28;20673;-75
2022/03/16 07:39:06;;;;;;;135.13;52.60;;;;;;;4.78;100.00;101895.91;5066277;28;20394;-76
2022/03/16 07:41:33;;;;;;;134.83;47.30;;;;;;;4.89;100.00;101901.25;5067327;28;20309;-75
2022/03/16 07:43:59;;;;;;;221.17;101.03;;;;;;;4.95;100.00;101901.38;5064770;28;20206;-74
2022/03/16 07:46:27;;;;;;;132.63;41.97;;;;;;;5.04;100.00;101898.94;5069521;28;20207;-75
2022/03/16 07:48:54;;;;;;;131.57;38.67;;;;;;;5.18;100.00;101899.19;5064715;28;20226;-74
2022/03/16 07:51:20;;;;;;;123.07;36.83;;;;;;;5.29;100.00;101894.19;5048885;28;20223;-75
2022/03/16 07:53:46;;;;;;;132.70;38.67;;;;;;;5.42;100.00;101890.09;5064385;28;20205;-76
2022/03/16 07:56:13;;;;;;;130.53;38.80;;;;;;;5.49;100.00;101892.78;5068508;28;20191;-75
2022/03/16 07:58:41;;;;;;;151.87;44.03;;;;;;;5.59;100.00;101898.94;5066935;28;20230;-74
2022/03/16 08:01:07;;;;;;;139.77;41.67;;;;;;;5.69;100.00;101897.38;5044538;28;20599;-76
2022/03/16 08:03:35;;;;;;;148.60;41.83;;;;;;;5.88;100.00;101904.53;5067663;28;20600;-76
2022/03/16 08:06:02;;;;;;;146.87;40.87;;;;;;;5.98;100.00;101908.19;5066510;28;20202;-75
2022/03/16 08:08:28;;;;;;;155.27;44.47;;;;;;;6.03;100.00;101911.69;5066128;28;20214;-74
2022/03/16 08:10:55;;;;;;;193.73;59.87;;;;;;;6.08;100.00;101911.72;5070519;28;20279;-74
2022/03/16 08:13:21;;;;;;;145.63;54.37;;;;;;;6.18;100.00;101917.91;5062986;28;20216;-76
2022/03/16 08:15:49;;;;;;;134.40;47.33;;;;;;;6.26;100.00;101918.88;5045559;28;20569;-76
2022/03/16 08:18:15;;;;;;;96.50;35.80;;;;;;;6.38;100.00;101921.59;5062673;28;20310;-75
2022/03/16 08:20:43;;;;;;;92.53;36.47;;;;;;;6.50;100.00;101931.25;5067811;28;20191;-75
2022/03/16 08:23:09;;;;;;;75.70;31.57;;;;;;;6.56;100.00;101925.25;5066510;28;20214;-74
2022/03/16 08:25:36;;;;;;;69.00;28.53;;;;;;;6.71;100.00;101925.44;5047429;28;20907;-75
2022/03/16 08:28:02;;;;;;;65.73;29.00;;;;;;;6.77;100.00;101927.22;5049529;28;20772;-76
2022/03/16 08:30:29;;;;;;;60.13;31.90;;;;;;;6.85;100.00;101932.50;5066683;28;20208;-76
2022/03/16 08:32:55;;;;;;;48.27;23.63;;;;;;;6.94;100.00;101933.44;5065147;28;20264;-73
2022/03/16 08:35:22;;;;;;;44.47;21.20;;;;;;;7.07;100.00;101937.03;5064937;28;20209;-74
2022/03/16 08:37:50;;;;;;;45.73;22.90;;;;;;;7.13;100.00;101929.31;5061165;28;20218;-74
2022/03/16 08:40:17;;;;;;;39.03;21.10;;;;;;;7.24;100.00;101936.31;5069790;28;20198;-76
2022/03/16 08:42:44;;;;;;;36.00;19.13;;;;;;;7.29;100.00;101939.81;5059949;28;20561;-75
2022/03/16 08:45:11;;;;;;;30.70;19.07;;;;;;;7.45;100.00;101952.06;5065507;28;20255;-74
2022/03/16 08:47:38;;;;;;;33.90;19.10;;;;;;;7.50;100.00;101957.28;5047569;28;20221;-76
2022/03/16 08:50:05;;;;;;;30.23;18.03;;;;;;;7.63;100.00;101951.31;5064854;28;20187;-76
2022/03/16 08:52:32;;;;;;;45.33;26.07;;;;;;;7.73;100.00;101957.44;5065707;28;20202;-76
2022/03/16 08:55:00;;;;;;;40.43;24.60;;;;;;;7.80;100.00;101963.56;5067226;28;20206;-76
2022/03/16 08:57:28;;;;;;;43.83;25.77;;;;;;;7.83;100.00;101966.16;5047482;28;20291;-75
2022/03/16 08:59:55;;;;;;;24.63;15.60;;;;;;;7.85;100.00;101967.06;5070912;28;20245;-75
2022/03/16 09:02:22;;;;;;;31.20;17.10;;;;;;;7.94;100.00;101972.31;5064256;28;20225;-76
2022/03/16 09:04:48;;;;;;;30.23;16.67;;;;;;;7.99;100.00;101980.13;5066322;28;20671;-76
2022/03/16 09:07:15;;;;;;;28.33;16.07;;;;;;;8.03;100.00;101990.53;5049942;28;20207;-75
2022/03/16 09:09:41;;;;;;;21.90;15.43;;;;;;;8.00;100.00;101987.91;5065248;28;20260;-76
2022/03/16 09:12:11;;;;;;;26.63;16.30;;;;;;;8.03;100.00;101987.94;5063599;28;20203;-75
2022/03/16 09:14:37;;;;;;;26.80;16.40;;;;;;;8.15;100.00;101992.34;5064321;28;20210;-75
2022/03/16 09:17:05;;;;;;;23.07;15.23;;;;;;;8.33;100.00;101989.81;5048239;28;20858;-75
2022/03/16 09:19:33;;;;;;;23.17;15.17;;;;;;;8.38;100.00;101991.59;5064506;28;20854;-76
2022/03/16 09:22:00;;;;;;;21.03;13.73;;;;;;;8.57;100.00;101993.44;5069924;28;20942;-75
2022/03/16 09:24:27;;;;;;;22.03;13.37;;;;;;;8.64;100.00;102003.00;5066288;28;20263;-76
2022/03/16 09:26:54;;;;;;;19.80;12.50;;;;;;;8.81;98.24;101991.78;5049749;28;20214;-76
2022/03/16 09:29:23;;;;;;;21.13;13.87;;;;;;;8.95;98.37;101994.44;5063879;28;20585;-76
2022/03/16 09:31:49;;;;;;;22.30;14.63;;;;;;;8.97;97.91;102013.50;5062248;28;20252;-76
2022/03/16 09:34:15;;;;;;;23.77;15.57;;;;;;;9.10;98.41;102000.53;5063422;28;20215;-73
2022/03/16 09:36:42;;;;;;;24.50;15.50;;;;;;;9.18;97.75;102008.38;5060857;28;20214;-76
2022/03/16 09:39:09;;;;;;;26.27;16.43;;;;;;;9.23;97.57;102011.84;5061948;28;20219;-76
2022/03/16 09:41:36;;;;;;;27.07;17.00;;;;;;;9.20;96.40;102019.66;5045274;28;20274;-76
2022/03/16 09:44:04;;;;;;;26.50;17.20;;;;;;;9.21;97.18;102023.09;5064235;28;20643;-76
2022/03/16 09:46:34;;;;;;;27.53;19.07;;;;;;;9.15;96.56;102015.31;5065822;28;20204;-76
2022/03/16 09:49:00;;;;;;;28.80;17.47;;;;;;;9.31;97.13;102011.84;5067507;28;20294;-76
2022/03/16 09:51:29;;;;;;;29.03;18.27;;;;;;;9.49;96.52;102011.00;5063461;28;20215;-75
2022/03/16 09:53:56;;;;;;;31.07;19.57;;;;;;;9.46;95.45;102022.28;5062142;28;20224;-75
2022/03/16 09:56:22;;;;;;;27.73;18.50;;;;;;;9.51;95.32;102024.88;5061692;28;20710;-75
2022/03/16 09:58:49;;;;;;;33.67;19.97;;;;;;;9.68;96.04;102019.69;5064982;28;20595;-75
2022/03/16 10:01:15;;;;;;;27.90;18.57;;;;;;;9.79;94.44;102023.13;5063614;28;20204;-75
2022/03/16 10:03:48;;;;;;;25.57;17.33;;;;;;;9.59;91.57;102030.97;5060404;28;20200;-76
2022/03/16 10:06:16;;;;;;;28.80;17.63;;;;;;;9.74;92.27;102021.41;5062001;28;20228;-75
2022/03/16 10:08:42;;;;;;;37.30;23.23;;;;;;;9.58;92.42;102025.75;5064810;28;20239;-75
2022/03/16 10:13:57;;;;;;;27.83;17.67;;;;;;;9.75;93.87;102021.41;5058247;28;20205;-75
2022/03/16 10:16:25;;;;;;;28.60;18.23;;;;;;;9.64;92.03;102030.97;5060676;28;20213;-75
2022/03/16 10:18:58;;;;;;;26.53;17.13;;;;;;;9.70;92.27;102022.28;5064893;28;20212;-75
2022/03/16 10:21:30;;;;;;;27.73;18.90;;;;;;;9.74;92.87;102029.22;5065420;28;20280;-75
2022/03/16 10:24:03;;;;;;;27.93;18.63;;;;;;;9.69;91.19;102038.78;5064618;28;20888;-75
2022/03/16 10:26:30;;;;;;;27.47;18.40;;;;;;;9.62;90.11;102036.19;5059486;28;20213;-75
2022/03/16 10:29:01;;;;;;;28.63;19.13;;;;;;;9.55;89.40;102030.94;5061742;28;20220;-75
2022/03/16 10:31:27;;;;;;;29.40;19.90;;;;;;;9.53;90.84;102036.16;5060492;28;20209;-75
2022/03/16 10:33:56;;;;;;;29.93;18.43;;;;;;;9.52;91.61;102024.03;5063903;28;20203;-75
2022/03/16 10:36:25;;;;;;;31.17;20.27;;;;;;;9.61;92.71;102025.75;5060952;28;20280;-75
2022/03/16 10:38:53;;;;;;;33.47;20.27;;;;;;;9.71;93.46;102029.22;5064293;28;20300;-75
2022/03/16 10:46:52;;;;;;;33.00;21.37;;;;;;;9.68;94.11;102024.88;5067334;28;20258;-75
2022/03/16 10:49:22;;;;;;;38.63;23.93;;;;;;;9.82;93.71;102028.34;5066281;28;20220;-75
2022/03/16 10:52:00;;;;;;;34.80;22.83;;;;;;;9.86;92.50;102032.69;5068241;28;20197;-75
2022/03/16 10:54:28;;;;;;;34.03;22.43;;;;;;;9.94;91.89;102034.44;5071119;28;20227;-74
2022/03/16 10:56:55;;;;;;;35.10;22.57;;;;;;;9.84;91.09;102039.63;5066903;28;20202;-75
2022/03/16 10:59:29;;;;;;;35.53;22.87;;;;;;;9.75;91.81;102042.25;5069665;28;20226;-75
2022/03/16 11:02:01;;;;;;;33.37;22.53;;;;;;;9.58;91.54;102039.63;5066251;28;20218;-74
2022/03/16 11:04:30;;;;;;;34.90;22.47;;;;;;;9.65;93.00;102041.38;5066752;28;20212;-75
2022/03/16 11:06:58;;;;;;;36.17;22.90;;;;;;;9.63;92.26;102035.28;5067298;28;20207;-75
2022/03/16 11:09:25;;;;;;;36.23;23.57;;;;;;;9.59;93.28;102043.13;5064124;28;20244;-75
2022/03/16 11:14:38;;;;;;;35.60;23.73;;;;;;;9.63;93.70;102044.84;5046710;28;20256;-74
2022/03/16 11:17:05;;;;;;;36.83;23.80;;;;;;;9.60;92.74;102043.13;5063812;28;20206;-74
2022/03/16 11:19:33;;;;;;;37.23;22.73;;;;;;;9.65;92.26;102049.19;5065126;28;20228;-74